createdAt,value
2022-08-11T00:05:04.423Z,24.98
2022-08-11T00:10:08.271Z,24.95
2022-08-11T00:15:12.034Z,24.88
2022-08-11T00:20:17.151Z,24.99
2022-08-11T00:25:21.109Z,24.86
2022-08-11T00:30:23.870Z,24.88
2022-08-11T00:35:54.595Z,24.89
2022-08-11T00:40:56.118Z,24.76
2022-08-11T00:46:26.392Z,24.58
2022-08-11T00:52:03.981Z,24.69
2022-08-11T00:57:37.747Z,24.65
2022-08-11T01:02:47.807Z,24.50
2022-08-11T01:08:15.879Z,24.52
2022-08-11T01:13:30.774Z,24.56
2022-08-11T01:18:53.974Z,24.41
2022-08-11T01:24:29.509Z,24.50
2022-08-11T01:29:55.285Z,24.39
2022-08-11T01:35:28.745Z,24.34
2022-08-11T01:41:13.176Z,24.36
2022-08-11T01:46:17.364Z,24.44
2022-08-11T01:51:30.202Z,24.41
2022-08-11T01:56:43.212Z,24.41
2022-08-11T02:01:58.337Z,24.40
2022-08-11T02:07:09.037Z,24.42
2022-08-11T02:12:16.413Z,24.34
2022-08-11T02:17:20.883Z,24.25
2022-08-11T02:22:47.779Z,24.27
2022-08-11T02:27:53.966Z,24.26
2022-08-11T02:33:20.142Z,24.23
2022-08-11T02:38:27.476Z,24.14
2022-08-11T02:43:37.738Z,24.10
2022-08-11T02:49:06.913Z,24.09
2022-08-11T02:54:14.298Z,24.12
2022-08-11T02:59:41.589Z,24.13
2022-08-11T03:04:51.366Z,24.07
2022-08-11T03:09:59.772Z,24.00
2022-08-11T03:15:22.379Z,23.90
2022-08-11T03:20:33.468Z,23.92
2022-08-11T03:25:47.636Z,23.82
2022-08-11T03:30:55.220Z,23.68
2022-08-11T03:36:07.078Z,21.82
2022-08-11T03:42:03.768Z,21.19
2022-08-11T03:47:04.747Z,20.79
2022-08-11T03:52:12.920Z,19.21
2022-08-11T03:57:46.261Z,18.76
2022-08-11T04:03:16.616Z,18.31
2022-08-11T04:08:45.014Z,17.63
2022-08-11T04:14:41.856Z,18.04
2022-08-11T04:19:55.962Z,17.78
2022-08-11T04:25:12.130Z,17.55
2022-08-11T04:30:17.529Z,17.50
2022-08-11T04:35:39.248Z,17.82
2022-08-11T04:41:14.361Z,17.86
2022-08-11T04:46:42.425Z,17.84
2022-08-11T04:52:25.129Z,17.93
2022-08-11T04:58:03.097Z,18.04
2022-08-11T05:03:32.484Z,17.77
2022-08-11T05:08:57.236Z,17.87
2022-08-11T05:14:37.115Z,17.75
2022-08-11T05:19:57.275Z,17.86
2022-08-11T05:26:08.971Z,18.01
2022-08-11T05:31:03.418Z,18.01
2022-08-11T05:36:09.792Z,18.35
2022-08-11T05:41:31.512Z,18.48
2022-08-11T05:46:57.718Z,18.56
2022-08-11T05:52:18.314Z,18.66
2022-08-11T05:57:50.379Z,19.07
2022-08-11T06:02:49.599Z,19.56
2022-08-11T06:07:54.126Z,19.34
2022-08-11T06:12:58.429Z,19.47
2022-08-11T06:18:02.848Z,20.09
2022-08-11T06:23:07.794Z,20.17
2022-08-11T06:28:15.983Z,20.11
2022-08-11T06:33:37.075Z,20.33
2022-08-11T06:38:47.981Z,20.59
2022-08-11T06:43:55.315Z,20.53
2022-08-11T06:48:59.306Z,20.72
2022-08-11T06:54:04.272Z,20.81
2022-08-11T06:59:32.417Z,21.31
2022-08-11T07:04:41.729Z,21.74
2022-08-11T07:10:22.772Z,21.89
2022-08-11T07:16:10.924Z,22.02
2022-08-11T07:21:59.917Z,22.14
2022-08-11T07:27:12.140Z,22.28
2022-08-11T07:32:24.268Z,22.38
2022-08-11T07:37:27.346Z,22.43
2022-08-11T07:42:31.502Z,22.54
2022-08-11T07:47:53.765Z,22.65
2022-08-11T07:52:56.792Z,22.75
2022-08-11T07:58:19.778Z,22.89
2022-08-11T08:03:54.827Z,23.00
2022-08-11T08:09:15.665Z,23.05
2022-08-11T08:14:36.314Z,23.15
2022-08-11T08:19:41.224Z,23.23
2022-08-11T08:24:44.028Z,23.31
2022-08-11T08:30:04.508Z,23.39
2022-08-11T08:35:09.138Z,23.47
2022-08-11T08:40:12.414Z,23.58
2022-08-11T08:45:16.237Z,23.65
2022-08-11T08:50:27.762Z,23.73
2022-08-11T08:55:30.874Z,23.81
2022-08-11T09:00:40.541Z,23.89
2022-08-11T09:05:44.849Z,23.96
2022-08-11T09:10:47.739Z,23.98
2022-08-11T09:15:54.435Z,24.02
2022-08-11T09:21:00.500Z,24.05
2022-08-11T09:26:20.913Z,24.11
2022-08-11T09:31:24.146Z,24.17
2022-08-11T09:36:54.618Z,24.20
2022-08-11T09:42:02.895Z,24.22
2022-08-11T09:47:15.057Z,24.29
2022-08-11T09:52:19.170Z,24.31
2022-08-11T09:57:39.829Z,24.36
2022-08-11T10:02:45.001Z,24.41
2022-08-11T10:07:52.395Z,24.43
2022-08-11T10:12:58.001Z,24.49
2022-08-11T10:18:21.474Z,24.53
2022-08-11T10:24:00.451Z,24.55
2022-08-11T10:29:44.259Z,24.57
2022-08-11T10:34:49.551Z,24.61
2022-08-11T10:40:02.346Z,24.66
2022-08-11T10:45:26.172Z,24.68
2022-08-11T10:50:46.711Z,24.70
2022-08-11T10:56:08.555Z,24.71
2022-08-11T11:01:11.389Z,24.75
2022-08-11T11:06:28.354Z,24.77
2022-08-11T11:11:53.909Z,24.79
2022-08-11T11:17:29.217Z,24.83
2022-08-11T11:22:41.449Z,24.87
2022-08-11T11:27:58.170Z,24.91
2022-08-11T11:33:04.393Z,24.94
2022-08-11T11:38:13.837Z,24.98
2022-08-11T11:43:18.477Z,24.99
2022-08-11T11:48:21.391Z,25.09
2022-08-11T11:53:24.195Z,25.13
2022-08-11T11:58:46.330Z,25.05
2022-08-11T12:03:50.999Z,25.05
2022-08-11T12:08:56.289Z,25.06
2022-08-11T12:14:01.638Z,25.09
2022-08-11T12:19:06.716Z,25.10
2022-08-11T12:24:29.183Z,25.15
2022-08-11T12:29:34.993Z,25.16
2022-08-11T12:34:37.784Z,25.17
2022-08-11T12:40:10.944Z,25.19
2022-08-11T12:45:31.404Z,25.24
2022-08-11T12:50:51.434Z,25.35
2022-08-11T12:56:11.834Z,25.27
2022-08-11T13:01:33.501Z,25.42
2022-08-11T13:06:37.673Z,25.37
2022-08-11T13:11:57.745Z,25.41
2022-08-11T13:17:19.583Z,25.45
2022-08-11T13:22:23.158Z,25.35
2022-08-11T13:27:26.024Z,25.37
2022-08-11T13:32:30.143Z,25.40
2022-08-11T13:38:19.285Z,25.42
2022-08-11T13:42:59.013Z,25.46
2022-08-11T13:48:03.161Z,25.49
2022-08-11T13:53:05.915Z,25.54
2022-08-11T13:58:19.076Z,25.58
2022-08-11T14:03:26.942Z,25.58
2022-08-11T14:08:49.644Z,25.59
2022-08-11T14:13:53.004Z,25.60
2022-08-11T14:18:59.288Z,25.63
2022-08-11T14:24:02.768Z,25.63
2022-08-11T14:29:08.910Z,25.65
2022-08-11T14:34:14.578Z,25.68
2022-08-11T14:39:18.620Z,25.71
2022-08-11T14:44:39.084Z,25.72
2022-08-11T14:49:58.493Z,25.74
2022-08-11T14:55:24.771Z,25.80
2022-08-11T15:00:27.660Z,25.82
2022-08-11T15:05:31.800Z,25.85
2022-08-11T15:10:34.625Z,25.88
2022-08-11T15:15:55.180Z,25.92
2022-08-11T15:21:17.043Z,25.99
2022-08-11T15:26:40.875Z,26.04
2022-08-11T15:32:01.235Z,26.07
2022-08-11T15:37:26.324Z,26.09
2022-08-11T15:42:46.877Z,26.12
2022-08-11T15:47:57.541Z,26.26
2022-08-11T15:53:10.739Z,26.36
2022-08-11T15:58:30.951Z,26.35
2022-08-11T16:04:06.502Z,26.34
2022-08-11T16:09:18.437Z,26.47
2022-08-11T16:14:39.577Z,26.58
2022-08-11T16:19:42.555Z,26.51
2022-08-11T16:27:01.642Z,26.48
2022-08-11T16:30:10.410Z,26.46
2022-08-11T16:35:34.091Z,26.45
2022-08-11T16:40:38.566Z,26.43
2022-08-11T16:45:59.845Z,26.45
2022-08-11T16:51:02.965Z,26.42
2022-08-11T16:56:07.806Z,26.42
2022-08-11T17:01:10.866Z,26.42
2022-08-11T17:06:31.278Z,26.41
2022-08-11T17:12:09.902Z,26.39
2022-08-11T17:17:14.646Z,26.40
2022-08-11T17:22:35.356Z,26.45
2022-08-11T17:27:39.742Z,26.48
2022-08-11T17:33:01.826Z,26.50
2022-08-11T17:38:06.580Z,26.47
2022-08-11T17:43:36.831Z,26.48
2022-08-11T17:48:47.975Z,26.46
2022-08-11T17:54:24.685Z,26.43
2022-08-11T18:00:01.238Z,26.35
2022-08-11T18:05:07.430Z,26.38
2022-08-11T18:10:35.637Z,26.32
2022-08-11T18:16:02.519Z,26.32
2022-08-11T18:21:24.705Z,26.28
2022-08-11T18:26:45.240Z,26.26
2022-08-11T18:32:08.109Z,26.20
2022-08-11T18:37:30.202Z,26.20
2022-08-11T18:42:50.534Z,26.17
2022-08-11T18:48:14.752Z,26.01
2022-08-11T18:53:35.428Z,25.96
2022-08-11T18:58:55.898Z,26.04
2022-08-11T19:04:19.354Z,26.05
2022-08-11T19:09:39.665Z,26.07
2022-08-11T19:15:00.282Z,26.07
2022-08-11T19:20:22.337Z,26.12
2022-08-11T19:25:42.907Z,26.08
2022-08-11T19:31:03.494Z,26.09
2022-08-11T19:36:25.750Z,26.11
2022-08-11T19:41:57.234Z,26.11
2022-08-11T19:47:18.562Z,26.11
2022-08-11T19:52:40.645Z,26.11
2022-08-11T19:58:01.502Z,26.10
2022-08-11T20:03:24.312Z,26.19
2022-08-11T20:08:45.929Z,26.22
2022-08-11T20:14:07.598Z,26.22
2022-08-11T20:19:54.654Z,26.22
2022-08-11T20:25:11.284Z,26.25
2022-08-11T20:30:31.743Z,26.28
2022-08-11T20:35:52.387Z,26.26
2022-08-11T20:41:16.308Z,26.30
2022-08-11T20:46:36.854Z,26.30
2022-08-11T20:51:57.608Z,26.32
2022-08-11T20:57:20.807Z,26.31
2022-08-11T21:02:58.072Z,26.34
2022-08-11T21:08:19.494Z,26.34
2022-08-11T21:13:48.644Z,26.35
2022-08-11T21:19:13.807Z,26.33
2022-08-11T21:24:34.356Z,26.35
2022-08-11T21:29:56.125Z,26.35
2022-08-11T21:35:16.276Z,26.35
2022-08-11T21:40:36.652Z,26.31
2022-08-11T21:45:58.552Z,26.31
2022-08-11T21:51:19.105Z,26.29
2022-08-11T21:56:39.605Z,26.23
2022-08-11T22:02:02.673Z,26.23
2022-08-11T22:07:23.484Z,26.24
2022-08-11T22:12:45.170Z,26.22
2022-08-11T22:18:07.366Z,26.22
2022-08-11T22:23:36.325Z,26.22
2022-08-11T22:28:57.582Z,26.20
2022-08-11T22:34:18.903Z,26.24
2022-08-11T22:39:39.282Z,26.18
2022-08-11T22:44:59.584Z,26.17
2022-08-11T22:50:21.231Z,26.20
2022-08-11T22:55:41.531Z,26.18
2022-08-11T23:01:02.095Z,26.09
2022-08-11T23:06:24.042Z,26.17
2022-08-11T23:12:07.843Z,26.17
2022-08-11T23:17:24.272Z,26.15
2022-08-11T23:22:50.237Z,26.11
2022-08-11T23:28:10.918Z,26.12
2022-08-11T23:33:31.376Z,26.10
2022-08-11T23:38:53.047Z,26.07
2022-08-11T23:44:13.515Z,26.06
2022-08-11T23:49:34.146Z,25.98
2022-08-11T23:54:55.956Z,25.96
